sensor_id;sensor_type;location;lat;lon;timestamp;temperature;humidity
22629;DHT22;11481;53.694;9.910;2022-07-23T00:00:19;17.40;99.90
22629;DHT22;11481;53.694;9.910;2022-07-23T00:02:46;17.40;99.90
22629;DHT22;11481;53.694;9.910;2022-07-23T00:05:13;17.50;99.90
22629;DHT22;11481;53.694;9.910;2022-07-23T00:07:40;17.40;99.90
22629;DHT22;11481;53.694;9.910;2022-07-23T00:10:07;17.50;99.90
22629;DHT22;11481;53.694;9.910;2022-07-23T00:12:34;17.40;99.90
22629;DHT22;11481;53.694;9.910;2022-07-23T00:15:02;17.20;99.90
22629;DHT22;11481;53.694;9.910;2022-07-23T00:17:29;17.00;99.90
22629;DHT22;11481;53.694;9.910;2022-07-23T00:19:55;16.90;99.90
22629;DHT22;11481;53.694;9.910;2022-07-23T00:22:22;16.90;99.90
22629;DHT22;11481;53.694;9.910;2022-07-23T00:24:49;16.90;99.90
22629;DHT22;11481;53.694;9.910;2022-07-23T00:27:36;16.80;99.90
22629;DHT22;11481;53.694;9.910;2022-07-23T00:30:03;16.70;99.90
22629;DHT22;11481;53.694;9.910;2022-07-23T00:32:29;16.70;99.90
22629;DHT22;11481;53.694;9.910;2022-07-23T00:35:19;16.60;99.90
22629;DHT22;11481;53.694;9.910;2022-07-23T00:37:46;16.60;99.90
22629;DHT22;11481;53.694;9.910;2022-07-23T00:40:14;16.70;99.90
22629;DHT22;11481;53.694;9.910;2022-07-23T00:42:40;16.70;99.90
22629;DHT22;11481;53.694;9.910;2022-07-23T00:45:07;16.70;99.90
22629;DHT22;11481;53.694;9.910;2022-07-23T00:47:34;16.70;99.90
22629;DHT22;11481;53.694;9.910;2022-07-23T00:50:03;16.60;99.90
22629;DHT22;11481;53.694;9.910;2022-07-23T00:52:31;16.50;99.90
22629;DHT22;11481;53.694;9.910;2022-07-23T00:54:58;16.50;99.90
22629;DHT22;11481;53.694;9.910;2022-07-23T00:57:26;16.30;99.90
22629;DHT22;11481;53.694;9.910;2022-07-23T00:59:54;16.30;99.90
22629;DHT22;11481;53.694;9.910;2022-07-23T01:02:21;16.30;99.90
22629;DHT22;11481;53.694;9.910;2022-07-23T01:04:49;16.20;99.90
22629;DHT22;11481;53.694;9.910;2022-07-23T01:07:16;16.20;99.90
22629;DHT22;11481;53.694;9.910;2022-07-23T01:09:44;16.10;99.90
22629;DHT22;11481;53.694;9.910;2022-07-23T01:12:11;16.20;99.90
22629;DHT22;11481;53.694;9.910;2022-07-23T01:14:38;16.10;99.90
22629;DHT22;11481;53.694;9.910;2022-07-23T01:17:05;16.10;99.90
22629;DHT22;11481;53.694;9.910;2022-07-23T01:19:32;16.10;99.90
22629;DHT22;11481;53.694;9.910;2022-07-23T01:22:01;16.00;99.90
22629;DHT22;11481;53.694;9.910;2022-07-23T01:24:29;16.00;99.90
22629;DHT22;11481;53.694;9.910;2022-07-23T01:26:55;16.00;99.90
22629;DHT22;11481;53.694;9.910;2022-07-23T01:29:22;16.00;99.90
22629;DHT22;11481;53.694;9.910;2022-07-23T01:31:49;16.00;99.90
22629;DHT22;11481;53.694;9.910;2022-07-23T01:34:16;15.90;99.90
22629;DHT22;11481;53.694;9.910;2022-07-23T01:36:42;15.90;99.90
22629;DHT22;11481;53.694;9.910;2022-07-23T01:39:09;15.90;99.90
22629;DHT22;11481;53.694;9.910;2022-07-23T01:41:36;15.90;99.90
22629;DHT22;11481;53.694;9.910;2022-07-23T01:44:03;15.90;99.90
22629;DHT22;11481;53.694;9.910;2022-07-23T01:46:30;15.80;99.90
22629;DHT22;11481;53.694;9.910;2022-07-23T01:48:56;15.80;99.90
22629;DHT22;11481;53.694;9.910;2022-07-23T01:51:24;15.80;99.90
22629;DHT22;11481;53.694;9.910;2022-07-23T01:53:51;15.80;99.90
22629;DHT22;11481;53.694;9.910;2022-07-23T01:56:17;15.80;99.90
22629;DHT22;11481;53.694;9.910;2022-07-23T01:58:48;15.90;99.90
22629;DHT22;11481;53.694;9.910;2022-07-23T02:01:15;15.90;99.90
22629;DHT22;11481;53.694;9.910;2022-07-23T02:03:43;15.90;99.90
22629;DHT22;11481;53.694;9.910;2022-07-23T02:06:09;15.90;99.90
22629;DHT22;11481;53.694;9.910;2022-07-23T02:08:36;16.00;99.90
22629;DHT22;11481;53.694;9.910;2022-07-23T02:11:03;15.90;99.90
22629;DHT22;11481;53.694;9.910;2022-07-23T02:13:29;15.90;99.90
22629;DHT22;11481;53.694;9.910;2022-07-23T02:16:00;15.80;99.90
22629;DHT22;11481;53.694;9.910;2022-07-23T02:18:27;15.90;99.90
22629;DHT22;11481;53.694;9.910;2022-07-23T02:20:53;15.90;99.90
22629;DHT22;11481;53.694;9.910;2022-07-23T02:23:20;16.00;99.90
22629;DHT22;11481;53.694;9.910;2022-07-23T02:25:49;15.90;99.90
22629;DHT22;11481;53.694;9.910;2022-07-23T02:28:15;15.90;99.90
22629;DHT22;11481;53.694;9.910;2022-07-23T02:30:42;16.00;99.90
22629;DHT22;11481;53.694;9.910;2022-07-23T02:33:09;16.00;99.90
22629;DHT22;11481;53.694;9.910;2022-07-23T02:35:35;16.10;99.90
22629;DHT22;11481;53.694;9.910;2022-07-23T02:38:02;16.00;99.90
22629;DHT22;11481;53.694;9.910;2022-07-23T02:40:29;16.10;99.90
22629;DHT22;11481;53.694;9.910;2022-07-23T02:42:55;16.00;99.90
22629;DHT22;11481;53.694;9.910;2022-07-23T02:45:22;16.10;99.90
22629;DHT22;11481;53.694;9.910;2022-07-23T02:47:49;16.10;99.90
22629;DHT22;11481;53.694;9.910;2022-07-23T02:50:15;16.10;99.90
22629;DHT22;11481;53.694;9.910;2022-07-23T02:52:42;16.00;99.90
22629;DHT22;11481;53.694;9.910;2022-07-23T02:55:09;16.00;99.90
22629;DHT22;11481;53.694;9.910;2022-07-23T02:57:36;16.00;99.90
22629;DHT22;11481;53.694;9.910;2022-07-23T03:00:04;16.00;99.90
22629;DHT22;11481;53.694;9.910;2022-07-23T03:02:32;16.10;99.90
22629;DHT22;11481;53.694;9.910;2022-07-23T03:04:59;16.10;99.90
22629;DHT22;11481;53.694;9.910;2022-07-23T03:07:26;16.10;99.90
22629;DHT22;11481;53.694;9.910;2022-07-23T03:09:52;16.00;99.90
22629;DHT22;11481;53.694;9.910;2022-07-23T03:12:19;16.00;99.90
22629;DHT22;11481;53.694;9.910;2022-07-23T03:14:46;16.10;99.90
22629;DHT22;11481;53.694;9.910;2022-07-23T03:17:12;16.00;99.90
22629;DHT22;11481;53.694;9.910;2022-07-23T03:19:39;16.10;99.90
22629;DHT22;11481;53.694;9.910;2022-07-23T03:22:06;16.10;99.90
22629;DHT22;11481;53.694;9.910;2022-07-23T03:24:32;16.10;99.90
22629;DHT22;11481;53.694;9.910;2022-07-23T03:27:18;16.00;99.90
22629;DHT22;11481;53.694;9.910;2022-07-23T03:29:44;16.10;99.90
22629;DHT22;11481;53.694;9.910;2022-07-23T03:32:11;16.10;99.90
22629;DHT22;11481;53.694;9.910;2022-07-23T03:34:38;16.10;99.90
22629;DHT22;11481;53.694;9.910;2022-07-23T03:37:06;16.10;99.90
22629;DHT22;11481;53.694;9.910;2022-07-23T03:39:33;16.10;99.90
22629;DHT22;11481;53.694;9.910;2022-07-23T03:41:59;16.10;99.90
22629;DHT22;11481;53.694;9.910;2022-07-23T03:44:26;16.00;99.90
22629;DHT22;11481;53.694;9.910;2022-07-23T03:46:52;15.90;99.90
22629;DHT22;11481;53.694;9.910;2022-07-23T03:49:19;15.90;99.90
22629;DHT22;11481;53.694;9.910;2022-07-23T03:51:46;15.90;99.90
22629;DHT22;11481;53.694;9.910;2022-07-23T03:54:13;15.80;99.90
22629;DHT22;11481;53.694;9.910;2022-07-23T03:56:40;15.80;99.90
22629;DHT22;11481;53.694;9.910;2022-07-23T03:59:07;15.90;99.90
22629;DHT22;11481;53.694;9.910;2022-07-23T04:01:34;15.90;99.90
22629;DHT22;11481;53.694;9.910;2022-07-23T04:04:01;16.00;99.90
22629;DHT22;11481;53.694;9.910;2022-07-23T04:06:28;16.00;99.90
22629;DHT22;11481;53.694;9.910;2022-07-23T04:08:55;16.00;99.90
22629;DHT22;11481;53.694;9.910;2022-07-23T04:11:22;15.90;99.90
22629;DHT22;11481;53.694;9.910;2022-07-23T04:13:49;15.90;99.90
22629;DHT22;11481;53.694;9.910;2022-07-23T04:16:15;15.90;99.90
22629;DHT22;11481;53.694;9.910;2022-07-23T04:18:42;16.00;99.90
22629;DHT22;11481;53.694;9.910;2022-07-23T04:21:09;15.90;99.90
22629;DHT22;11481;53.694;9.910;2022-07-23T04:23:35;16.00;99.90
22629;DHT22;11481;53.694;9.910;2022-07-23T04:26:02;16.00;99.90
22629;DHT22;11481;53.694;9.910;2022-07-23T04:28:29;15.90;99.90
22629;DHT22;11481;53.694;9.910;2022-07-23T04:30:56;15.90;99.90
22629;DHT22;11481;53.694;9.910;2022-07-23T04:33:24;15.90;99.90
22629;DHT22;11481;53.694;9.910;2022-07-23T04:35:50;15.80;99.90
22629;DHT22;11481;53.694;9.910;2022-07-23T04:38:18;15.80;99.90
22629;DHT22;11481;53.694;9.910;2022-07-23T04:40:45;15.80;99.90
22629;DHT22;11481;53.694;9.910;2022-07-23T04:43:12;15.80;99.90
22629;DHT22;11481;53.694;9.910;2022-07-23T04:45:38;15.80;99.90
22629;DHT22;11481;53.694;9.910;2022-07-23T04:48:05;15.80;99.90
22629;DHT22;11481;53.694;9.910;2022-07-23T04:50:32;15.90;99.90
22629;DHT22;11481;53.694;9.910;2022-07-23T04:52:59;15.90;99.90
22629;DHT22;11481;53.694;9.910;2022-07-23T04:55:25;15.90;99.90
22629;DHT22;11481;53.694;9.910;2022-07-23T04:57:52;15.90;99.90
22629;DHT22;11481;53.694;9.910;2022-07-23T05:00:19;15.90;99.90
22629;DHT22;11481;53.694;9.910;2022-07-23T05:02:45;16.00;99.90
22629;DHT22;11481;53.694;9.910;2022-07-23T05:05:12;16.10;99.90
22629;DHT22;11481;53.694;9.910;2022-07-23T05:07:39;16.20;99.90
22629;DHT22;11481;53.694;9.910;2022-07-23T05:10:06;16.20;99.90
22629;DHT22;11481;53.694;9.910;2022-07-23T05:12:32;16.20;99.90
22629;DHT22;11481;53.694;9.910;2022-07-23T05:14:59;16.20;99.90
22629;DHT22;11481;53.694;9.910;2022-07-23T05:17:26;16.10;99.90
22629;DHT22;11481;53.694;9.910;2022-07-23T05:19:52;16.00;99.90
22629;DHT22;11481;53.694;9.910;2022-07-23T05:22:26;16.10;99.90
22629;DHT22;11481;53.694;9.910;2022-07-23T05:24:52;16.20;99.90
22629;DHT22;11481;53.694;9.910;2022-07-23T05:27:19;16.20;99.90
22629;DHT22;11481;53.694;9.910;2022-07-23T05:29:46;16.20;99.90
22629;DHT22;11481;53.694;9.910;2022-07-23T05:32:13;16.20;99.90
22629;DHT22;11481;53.694;9.910;2022-07-23T05:34:40;16.30;99.90
22629;DHT22;11481;53.694;9.910;2022-07-23T05:37:06;16.30;99.90
22629;DHT22;11481;53.694;9.910;2022-07-23T05:39:33;16.30;99.90
22629;DHT22;11481;53.694;9.910;2022-07-23T05:42:00;16.30;99.90
22629;DHT22;11481;53.694;9.910;2022-07-23T05:44:26;16.30;99.90
22629;DHT22;11481;53.694;9.910;2022-07-23T05:47:00;16.40;99.90
22629;DHT22;11481;53.694;9.910;2022-07-23T05:49:27;16.40;99.90
22629;DHT22;11481;53.694;9.910;2022-07-23T05:51:54;16.30;99.90
22629;DHT22;11481;53.694;9.910;2022-07-23T05:54:20;16.30;99.90
22629;DHT22;11481;53.694;9.910;2022-07-23T05:56:47;16.30;99.90
22629;DHT22;11481;53.694;9.910;2022-07-23T05:59:14;16.30;99.90
22629;DHT22;11481;53.694;9.910;2022-07-23T06:01:41;16.40;99.90
22629;DHT22;11481;53.694;9.910;2022-07-23T06:04:08;16.30;99.90
22629;DHT22;11481;53.694;9.910;2022-07-23T06:06:35;16.20;99.90
22629;DHT22;11481;53.694;9.910;2022-07-23T06:09:02;16.10;99.90
22629;DHT22;11481;53.694;9.910;2022-07-23T06:11:29;15.90;99.90
22629;DHT22;11481;53.694;9.910;2022-07-23T06:13:56;15.80;99.90
22629;DHT22;11481;53.694;9.910;2022-07-23T06:16:23;15.70;99.90
22629;DHT22;11481;53.694;9.910;2022-07-23T06:18:49;15.80;99.90
22629;DHT22;11481;53.694;9.910;2022-07-23T06:21:16;15.90;99.90
22629;DHT22;11481;53.694;9.910;2022-07-23T06:24:03;16.00;99.90
22629;DHT22;11481;53.694;9.910;2022-07-23T06:26:29;16.00;99.90
22629;DHT22;11481;53.694;9.910;2022-07-23T06:28:56;16.00;99.90
22629;DHT22;11481;53.694;9.910;2022-07-23T06:31:23;16.00;99.90
22629;DHT22;11481;53.694;9.910;2022-07-23T06:33:50;16.00;99.90
22629;DHT22;11481;53.694;9.910;2022-07-23T06:36:16;15.80;99.90
22629;DHT22;11481;53.694;9.910;2022-07-23T06:38:43;15.80;99.90
22629;DHT22;11481;53.694;9.910;2022-07-23T06:41:10;15.90;99.90
22629;DHT22;11481;53.694;9.910;2022-07-23T06:43:37;16.00;99.90
22629;DHT22;11481;53.694;9.910;2022-07-23T06:46:04;16.00;99.90
22629;DHT22;11481;53.694;9.910;2022-07-23T06:48:31;16.00;99.90
22629;DHT22;11481;53.694;9.910;2022-07-23T06:50:58;16.00;99.90
22629;DHT22;11481;53.694;9.910;2022-07-23T06:53:24;16.10;99.90
22629;DHT22;11481;53.694;9.910;2022-07-23T06:55:51;16.20;99.90
22629;DHT22;11481;53.694;9.910;2022-07-23T06:58:17;16.20;99.90
22629;DHT22;11481;53.694;9.910;2022-07-23T07:00:46;16.10;99.90
22629;DHT22;11481;53.694;9.910;2022-07-23T07:03:13;16.00;99.90
22629;DHT22;11481;53.694;9.910;2022-07-23T07:05:39;16.00;99.90
22629;DHT22;11481;53.694;9.910;2022-07-23T07:08:06;16.00;99.90
22629;DHT22;11481;53.694;9.910;2022-07-23T07:10:33;16.00;99.90
22629;DHT22;11481;53.694;9.910;2022-07-23T07:13:00;15.90;99.90
22629;DHT22;11481;53.694;9.910;2022-07-23T07:15:26;16.10;99.90
22629;DHT22;11481;53.694;9.910;2022-07-23T07:17:53;16.10;99.90
22629;DHT22;11481;53.694;9.910;2022-07-23T07:20:20;16.00;99.90
22629;DHT22;11481;53.694;9.910;2022-07-23T07:22:46;15.90;99.90
22629;DHT22;11481;53.694;9.910;2022-07-23T07:25:13;16.00;99.90
22629;DHT22;11481;53.694;9.910;2022-07-23T07:27:40;16.10;99.90
22629;DHT22;11481;53.694;9.910;2022-07-23T07:30:07;16.20;99.90
22629;DHT22;11481;53.694;9.910;2022-07-23T07:32:34;16.30;99.90
22629;DHT22;11481;53.694;9.910;2022-07-23T07:35:22;16.40;99.90
22629;DHT22;11481;53.694;9.910;2022-07-23T07:37:49;16.30;99.90
22629;DHT22;11481;53.694;9.910;2022-07-23T07:40:16;16.10;99.90
22629;DHT22;11481;53.694;9.910;2022-07-23T07:42:50;16.20;99.90
22629;DHT22;11481;53.694;9.910;2022-07-23T07:45:19;16.40;99.90
22629;DHT22;11481;53.694;9.910;2022-07-23T07:47:46;16.50;99.90
22629;DHT22;11481;53.694;9.910;2022-07-23T07:50:13;16.50;99.90
22629;DHT22;11481;53.694;9.910;2022-07-23T07:52:40;16.60;99.90
22629;DHT22;11481;53.694;9.910;2022-07-23T07:55:08;16.60;99.90
22629;DHT22;11481;53.694;9.910;2022-07-23T07:57:35;16.50;99.90
22629;DHT22;11481;53.694;9.910;2022-07-23T08:00:04;16.50;99.90
22629;DHT22;11481;53.694;9.910;2022-07-23T08:02:47;16.70;99.90
22629;DHT22;11481;53.694;9.910;2022-07-23T08:05:22;16.70;99.90
22629;DHT22;11481;53.694;9.910;2022-07-23T08:07:55;16.80;99.90
22629;DHT22;11481;53.694;9.910;2022-07-23T08:10:23;16.80;99.90
22629;DHT22;11481;53.694;9.910;2022-07-23T08:12:52;16.80;99.90
22629;DHT22;11481;53.694;9.910;2022-07-23T08:15:21;16.80;99.90
22629;DHT22;11481;53.694;9.910;2022-07-23T08:17:48;16.70;99.90
22629;DHT22;11481;53.694;9.910;2022-07-23T08:20:17;16.80;99.90
22629;DHT22;11481;53.694;9.910;2022-07-23T08:25:15;17.10;99.90
22629;DHT22;11481;53.694;9.910;2022-07-23T08:27:42;17.10;99.90
22629;DHT22;11481;53.694;9.910;2022-07-23T08:30:09;17.10;99.90
22629;DHT22;11481;53.694;9.910;2022-07-23T08:32:48;17.20;99.90
22629;DHT22;11481;53.694;9.910;2022-07-23T08:35:16;17.50;99.90
22629;DHT22;11481;53.694;9.910;2022-07-23T08:37:43;17.50;99.90
22629;DHT22;11481;53.694;9.910;2022-07-23T08:40:10;17.40;99.90
22629;DHT22;11481;53.694;9.910;2022-07-23T08:42:37;17.40;99.90
22629;DHT22;11481;53.694;9.910;2022-07-23T08:45:07;17.30;99.90
22629;DHT22;11481;53.694;9.910;2022-07-23T08:47:35;17.30;99.90
22629;DHT22;11481;53.694;9.910;2022-07-23T08:50:03;17.40;99.90
22629;DHT22;11481;53.694;9.910;2022-07-23T08:52:30;17.60;99.90
22629;DHT22;11481;53.694;9.910;2022-07-23T08:54:57;17.70;99.90
22629;DHT22;11481;53.694;9.910;2022-07-23T08:57:25;17.60;99.90
22629;DHT22;11481;53.694;9.910;2022-07-23T08:59:51;17.50;99.90
22629;DHT22;11481;53.694;9.910;2022-07-23T09:02:18;17.40;99.90
22629;DHT22;11481;53.694;9.910;2022-07-23T09:04:45;17.70;99.90
22629;DHT22;11481;53.694;9.910;2022-07-23T09:07:12;17.90;99.90
22629;DHT22;11481;53.694;9.910;2022-07-23T09:09:38;18.00;99.90
22629;DHT22;11481;53.694;9.910;2022-07-23T09:12:10;18.00;99.90
22629;DHT22;11481;53.694;9.910;2022-07-23T09:14:39;18.10;99.90
22629;DHT22;11481;53.694;9.910;2022-07-23T09:17:14;18.20;99.90
22629;DHT22;11481;53.694;9.910;2022-07-23T09:19:42;18.20;99.90
22629;DHT22;11481;53.694;9.910;2022-07-23T09:22:23;18.30;99.90
22629;DHT22;11481;53.694;9.910;2022-07-23T09:25:04;18.50;99.90
22629;DHT22;11481;53.694;9.910;2022-07-23T09:27:50;18.50;99.90
22629;DHT22;11481;53.694;9.910;2022-07-23T09:30:23;18.20;99.90
22629;DHT22;11481;53.694;9.910;2022-07-23T09:33:13;18.00;99.90
22629;DHT22;11481;53.694;9.910;2022-07-23T09:35:58;17.90;99.90
22629;DHT22;11481;53.694;9.910;2022-07-23T09:38:24;17.90;99.90
22629;DHT22;11481;53.694;9.910;2022-07-23T09:43:34;17.40;99.90
22629;DHT22;11481;53.694;9.910;2022-07-23T09:46:21;17.30;99.90
22629;DHT22;11481;53.694;9.910;2022-07-23T09:48:48;17.30;99.90
22629;DHT22;11481;53.694;9.910;2022-07-23T09:51:15;17.30;99.90
22629;DHT22;11481;53.694;9.910;2022-07-23T09:53:53;17.50;99.90
22629;DHT22;11481;53.694;9.910;2022-07-23T09:56:20;17.40;99.90
22629;DHT22;11481;53.694;9.910;2022-07-23T09:58:53;17.40;99.90
22629;DHT22;11481;53.694;9.910;2022-07-23T10:01:39;17.50;99.90
22629;DHT22;11481;53.694;9.910;2022-07-23T10:04:07;17.60;99.90
22629;DHT22;11481;53.694;9.910;2022-07-23T10:06:34;17.80;99.90
22629;DHT22;11481;53.694;9.910;2022-07-23T10:09:01;17.90;99.90
22629;DHT22;11481;53.694;9.910;2022-07-23T10:11:30;18.00;99.90
22629;DHT22;11481;53.694;9.910;2022-07-23T10:13:58;18.10;99.90
22629;DHT22;11481;53.694;9.910;2022-07-23T10:16:27;18.10;99.90
22629;DHT22;11481;53.694;9.910;2022-07-23T10:18:54;18.20;99.90
22629;DHT22;11481;53.694;9.910;2022-07-23T10:21:45;18.30;99.90
22629;DHT22;11481;53.694;9.910;2022-07-23T10:24:36;18.20;99.90
22629;DHT22;11481;53.694;9.910;2022-07-23T10:35:50;17.70;99.90
22629;DHT22;11481;53.694;9.910;2022-07-23T10:38:30;17.70;99.90
22629;DHT22;11481;53.694;9.910;2022-07-23T10:41:00;17.70;99.90
22629;DHT22;11481;53.694;9.910;2022-07-23T10:43:28;17.90;99.90
22629;DHT22;11481;53.694;9.910;2022-07-23T10:46:23;18.00;99.90
22629;DHT22;11481;53.694;9.910;2022-07-23T10:54:54;18.50;99.90
22629;DHT22;11481;53.694;9.910;2022-07-23T10:57:27;18.40;99.90
22629;DHT22;11481;53.694;9.910;2022-07-23T11:02:29;18.80;99.90
22629;DHT22;11481;53.694;9.910;2022-07-23T11:05:02;18.60;99.90
22629;DHT22;11481;53.694;9.910;2022-07-23T11:07:29;18.60;99.90
22629;DHT22;11481;53.694;9.910;2022-07-23T11:09:56;18.70;99.90
22629;DHT22;11481;53.694;9.910;2022-07-23T11:15:11;18.90;99.90
22629;DHT22;11481;53.694;9.910;2022-07-23T11:20:20;18.70;99.90
22629;DHT22;11481;53.694;9.910;2022-07-23T11:22:54;18.70;99.90
22629;DHT22;11481;53.694;9.910;2022-07-23T11:27:49;18.50;99.90
22629;DHT22;11481;53.694;9.910;2022-07-23T11:30:38;18.90;99.90
22629;DHT22;11481;53.694;9.910;2022-07-23T11:35:36;19.30;99.90
22629;DHT22;11481;53.694;9.910;2022-07-23T11:38:08;19.30;99.90
22629;DHT22;11481;53.694;9.910;2022-07-23T11:40:39;19.30;99.90
22629;DHT22;11481;53.694;9.910;2022-07-23T11:43:10;19.00;99.90
22629;DHT22;11481;53.694;9.910;2022-07-23T11:45:39;19.10;99.90
22629;DHT22;11481;53.694;9.910;2022-07-23T11:48:09;19.30;99.90
22629;DHT22;11481;53.694;9.910;2022-07-23T11:50:36;19.20;99.90
22629;DHT22;11481;53.694;9.910;2022-07-23T11:53:03;19.30;99.90
22629;DHT22;11481;53.694;9.910;2022-07-23T11:55:30;19.30;99.90
22629;DHT22;11481;53.694;9.910;2022-07-23T11:57:57;19.30;99.90
22629;DHT22;11481;53.694;9.910;2022-07-23T12:00:28;19.20;99.90
22629;DHT22;11481;53.694;9.910;2022-07-23T12:03:00;19.10;99.90
22629;DHT22;11481;53.694;9.910;2022-07-23T12:05:30;19.10;99.90
22629;DHT22;11481;53.694;9.910;2022-07-23T12:07:58;19.30;99.90
22629;DHT22;11481;53.694;9.910;2022-07-23T12:13:04;19.40;99.90
22629;DHT22;11481;53.694;9.910;2022-07-23T12:15:33;19.40;99.90
22629;DHT22;11481;53.694;9.910;2022-07-23T12:18:01;19.80;99.90
22629;DHT22;11481;53.694;9.910;2022-07-23T12:20:30;19.80;99.90
22629;DHT22;11481;53.694;9.910;2022-07-23T12:23:02;20.00;99.90
22629;DHT22;11481;53.694;9.910;2022-07-23T12:25:32;19.80;99.90
22629;DHT22;11481;53.694;9.910;2022-07-23T12:28:09;20.00;99.90
22629;DHT22;11481;53.694;9.910;2022-07-23T12:30:50;19.80;99.90
22629;DHT22;11481;53.694;9.910;2022-07-23T12:33:32;19.80;99.90
22629;DHT22;11481;53.694;9.910;2022-07-23T12:36:01;19.60;99.90
22629;DHT22;11481;53.694;9.910;2022-07-23T12:38:44;19.70;99.90
22629;DHT22;11481;53.694;9.910;2022-07-23T12:41:12;20.00;99.90
22629;DHT22;11481;53.694;9.910;2022-07-23T12:43:41;20.40;99.90
22629;DHT22;11481;53.694;9.910;2022-07-23T12:46:18;20.40;99.90
22629;DHT22;11481;53.694;9.910;2022-07-23T12:48:52;20.20;99.90
22629;DHT22;11481;53.694;9.910;2022-07-23T12:51:27;20.00;99.90
22629;DHT22;11481;53.694;9.910;2022-07-23T12:54:05;19.70;99.90
22629;DHT22;11481;53.694;9.910;2022-07-23T12:56:34;19.90;99.90
22629;DHT22;11481;53.694;9.910;2022-07-23T12:59:07;19.80;99.90
22629;DHT22;11481;53.694;9.910;2022-07-23T13:01:37;19.90;99.90
22629;DHT22;11481;53.694;9.910;2022-07-23T13:04:09;19.80;99.90
22629;DHT22;11481;53.694;9.910;2022-07-23T13:07:05;19.90;99.90
22629;DHT22;11481;53.694;9.910;2022-07-23T13:09:33;19.90;99.90
22629;DHT22;11481;53.694;9.910;2022-07-23T13:12:08;19.60;99.90
22629;DHT22;11481;53.694;9.910;2022-07-23T13:14:37;19.40;99.90
22629;DHT22;11481;53.694;9.910;2022-07-23T13:17:03;19.40;99.90
22629;DHT22;11481;53.694;9.910;2022-07-23T13:19:32;19.40;99.90
22629;DHT22;11481;53.694;9.910;2022-07-23T13:22:00;19.60;99.90
22629;DHT22;11481;53.694;9.910;2022-07-23T13:24:34;19.40;99.90
22629;DHT22;11481;53.694;9.910;2022-07-23T13:27:04;19.80;99.90
22629;DHT22;11481;53.694;9.910;2022-07-23T13:29:33;19.90;99.90
22629;DHT22;11481;53.694;9.910;2022-07-23T13:32:02;19.90;99.90
22629;DHT22;11481;53.694;9.910;2022-07-23T13:34:36;19.70;99.90
22629;DHT22;11481;53.694;9.910;2022-07-23T13:37:06;19.80;99.90
22629;DHT22;11481;53.694;9.910;2022-07-23T13:39:33;19.70;99.90
22629;DHT22;11481;53.694;9.910;2022-07-23T13:42:04;19.60;99.90
22629;DHT22;11481;53.694;9.910;2022-07-23T13:44:34;19.70;99.90
22629;DHT22;11481;53.694;9.910;2022-07-23T13:47:02;19.80;99.90
22629;DHT22;11481;53.694;9.910;2022-07-23T13:49:30;19.60;99.90
22629;DHT22;11481;53.694;9.910;2022-07-23T13:51:56;19.30;99.90
22629;DHT22;11481;53.694;9.910;2022-07-23T13:54:24;19.40;99.90
22629;DHT22;11481;53.694;9.910;2022-07-23T13:56:51;19.50;99.90
22629;DHT22;11481;53.694;9.910;2022-07-23T13:59:18;19.50;99.90
22629;DHT22;11481;53.694;9.910;2022-07-23T14:01:45;19.50;99.90
22629;DHT22;11481;53.694;9.910;2022-07-23T14:04:31;19.60;99.90
22629;DHT22;11481;53.694;9.910;2022-07-23T14:07:00;19.70;99.90
22629;DHT22;11481;53.694;9.910;2022-07-23T14:09:26;19.50;99.90
22629;DHT22;11481;53.694;9.910;2022-07-23T14:11:53;19.60;99.90
22629;DHT22;11481;53.694;9.910;2022-07-23T14:14:20;19.70;99.90
22629;DHT22;11481;53.694;9.910;2022-07-23T14:16:47;19.50;99.90
22629;DHT22;11481;53.694;9.910;2022-07-23T14:19:14;19.60;99.90
22629;DHT22;11481;53.694;9.910;2022-07-23T14:21:41;19.70;99.90
22629;DHT22;11481;53.694;9.910;2022-07-23T14:24:08;19.70;99.90
22629;DHT22;11481;53.694;9.910;2022-07-23T14:26:35;19.40;99.90
22629;DHT22;11481;53.694;9.910;2022-07-23T14:29:03;19.40;99.90
22629;DHT22;11481;53.694;9.910;2022-07-23T14:31:30;19.50;99.90
22629;DHT22;11481;53.694;9.910;2022-07-23T14:33:57;19.60;99.90
22629;DHT22;11481;53.694;9.910;2022-07-23T14:36:26;19.40;99.90
22629;DHT22;11481;53.694;9.910;2022-07-23T14:38:54;19.30;99.90
22629;DHT22;11481;53.694;9.910;2022-07-23T14:41:22;19.20;99.90
22629;DHT22;11481;53.694;9.910;2022-07-23T14:43:53;19.30;99.90
22629;DHT22;11481;53.694;9.910;2022-07-23T14:46:20;19.40;99.90
22629;DHT22;11481;53.694;9.910;2022-07-23T14:48:47;19.40;99.90
22629;DHT22;11481;53.694;9.910;2022-07-23T14:51:14;19.40;99.90
22629;DHT22;11481;53.694;9.910;2022-07-23T14:53:40;19.30;99.90
22629;DHT22;11481;53.694;9.910;2022-07-23T14:56:07;19.20;99.90
22629;DHT22;11481;53.694;9.910;2022-07-23T14:58:34;19.20;99.90
22629;DHT22;11481;53.694;9.910;2022-07-23T15:01:03;19.40;99.90
22629;DHT22;11481;53.694;9.910;2022-07-23T15:03:30;19.60;99.90
22629;DHT22;11481;53.694;9.910;2022-07-23T15:06:05;19.50;99.90
22629;DHT22;11481;53.694;9.910;2022-07-23T15:08:33;19.60;99.90
22629;DHT22;11481;53.694;9.910;2022-07-23T15:11:00;19.40;99.90
22629;DHT22;11481;53.694;9.910;2022-07-23T15:13:26;19.30;99.90
22629;DHT22;11481;53.694;9.910;2022-07-23T15:15:54;19.30;99.90
22629;DHT22;11481;53.694;9.910;2022-07-23T15:18:23;19.10;99.90
22629;DHT22;11481;53.694;9.910;2022-07-23T15:20:50;19.00;99.90
22629;DHT22;11481;53.694;9.910;2022-07-23T15:23:17;19.10;99.90
22629;DHT22;11481;53.694;9.910;2022-07-23T15:25:44;19.10;99.90
22629;DHT22;11481;53.694;9.910;2022-07-23T15:28:16;19.20;99.90
22629;DHT22;11481;53.694;9.910;2022-07-23T15:30:48;19.40;99.90
22629;DHT22;11481;53.694;9.910;2022-07-23T15:33:16;19.50;99.90
22629;DHT22;11481;53.694;9.910;2022-07-23T15:35:48;19.50;99.90
22629;DHT22;11481;53.694;9.910;2022-07-23T15:38:16;19.50;99.90
22629;DHT22;11481;53.694;9.910;2022-07-23T15:40:54;19.80;99.90
22629;DHT22;11481;53.694;9.910;2022-07-23T15:43:25;20.00;99.90
22629;DHT22;11481;53.694;9.910;2022-07-23T15:45:52;19.60;99.90
22629;DHT22;11481;53.694;9.910;2022-07-23T15:48:19;19.50;99.90
22629;DHT22;11481;53.694;9.910;2022-07-23T15:50:47;19.60;99.90
22629;DHT22;11481;53.694;9.910;2022-07-23T15:53:14;19.80;99.90
22629;DHT22;11481;53.694;9.910;2022-07-23T15:55:41;20.00;99.90
22629;DHT22;11481;53.694;9.910;2022-07-23T15:58:12;20.00;99.90
22629;DHT22;11481;53.694;9.910;2022-07-23T16:00:40;19.80;99.90
22629;DHT22;11481;53.694;9.910;2022-07-23T16:03:08;19.80;99.90
22629;DHT22;11481;53.694;9.910;2022-07-23T16:05:35;19.60;99.90
22629;DHT22;11481;53.694;9.910;2022-07-23T16:08:04;19.70;99.90
22629;DHT22;11481;53.694;9.910;2022-07-23T16:10:31;19.70;99.90
22629;DHT22;11481;53.694;9.910;2022-07-23T16:12:58;19.80;99.90
22629;DHT22;11481;53.694;9.910;2022-07-23T16:15:25;19.80;99.90